sensor_id;sensor_type;location;lat;lon;timestamp;P1;durP1;ratioP1;P2;durP2;ratioP2
13325;SDS011;6732;51.044;3.746;2022-09-14T00:01:54;2.38;;;1.05;;
13325;SDS011;6732;51.044;3.746;2022-09-14T00:04:20;2.50;;;1.33;;
13325;SDS011;6732;51.044;3.746;2022-09-14T00:06:46;3.60;;;1.30;;
13325;SDS011;6732;51.044;3.746;2022-09-14T00:09:14;3.15;;;1.25;;
13325;SDS011;6732;51.044;3.746;2022-09-14T00:11:44;2.50;;;1.40;;
13325;SDS011;6732;51.044;3.746;2022-09-14T00:14:09;1.70;;;1.20;;
13325;SDS011;6732;51.044;3.746;2022-09-14T00:16:37;2.78;;;1.25;;
13325;SDS011;6732;51.044;3.746;2022-09-14T00:19:05;2.22;;;1.30;;
13325;SDS011;6732;51.044;3.746;2022-09-14T00:21:37;2.25;;;1.42;;
13325;SDS011;6732;51.044;3.746;2022-09-14T00:24:04;1.98;;;1.35;;
13325;SDS011;6732;51.044;3.746;2022-09-14T00:26:31;2.83;;;1.85;;
13325;SDS011;6732;51.044;3.746;2022-09-14T00:28:58;1.65;;;1.05;;
13325;SDS011;6732;51.044;3.746;2022-09-14T00:31:29;2.50;;;1.05;;
13325;SDS011;6732;51.044;3.746;2022-09-14T00:33:56;3.83;;;1.73;;
13325;SDS011;6732;51.044;3.746;2022-09-14T00:36:24;4.00;;;1.60;;
13325;SDS011;6732;51.044;3.746;2022-09-14T00:38:51;2.85;;;1.63;;
13325;SDS011;6732;51.044;3.746;2022-09-14T00:41:24;2.40;;;1.05;;
13325;SDS011;6732;51.044;3.746;2022-09-14T00:46:19;2.47;;;1.50;;
13325;SDS011;6732;51.044;3.746;2022-09-14T00:48:45;2.40;;;1.48;;
13325;SDS011;6732;51.044;3.746;2022-09-14T00:51:11;1.55;;;1.30;;
13325;SDS011;6732;51.044;3.746;2022-09-14T00:53:39;2.38;;;1.38;;
13325;SDS011;6732;51.044;3.746;2022-09-14T00:56:05;2.78;;;1.58;;
13325;SDS011;6732;51.044;3.746;2022-09-14T00:58:31;4.57;;;1.38;;
13325;SDS011;6732;51.044;3.746;2022-09-14T01:00:57;2.50;;;1.42;;
13325;SDS011;6732;51.044;3.746;2022-09-14T01:03:23;3.08;;;1.60;;
13325;SDS011;6732;51.044;3.746;2022-09-14T01:05:55;4.40;;;1.52;;
13325;SDS011;6732;51.044;3.746;2022-09-14T01:08:36;1.45;;;1.33;;
13325;SDS011;6732;51.044;3.746;2022-09-14T01:11:30;2.15;;;1.13;;
13325;SDS011;6732;51.044;3.746;2022-09-14T01:16:48;1.65;;;1.30;;
13325;SDS011;6732;51.044;3.746;2022-09-14T01:21:54;2.45;;;1.50;;
13325;SDS011;6732;51.044;3.746;2022-09-14T01:27:18;3.67;;;1.20;;
13325;SDS011;6732;51.044;3.746;2022-09-14T01:32:38;1.30;;;1.20;;
13325;SDS011;6732;51.044;3.746;2022-09-14T01:35:14;2.20;;;1.20;;
13325;SDS011;6732;51.044;3.746;2022-09-14T01:37:48;1.60;;;1.15;;
13325;SDS011;6732;51.044;3.746;2022-09-14T01:43:02;2.13;;;1.40;;
13325;SDS011;6732;51.044;3.746;2022-09-14T01:45:29;4.43;;;1.38;;
13325;SDS011;6732;51.044;3.746;2022-09-14T01:47:59;2.25;;;1.20;;
13325;SDS011;6732;51.044;3.746;2022-09-14T01:50:29;2.90;;;1.50;;
13325;SDS011;6732;51.044;3.746;2022-09-14T01:55:45;1.50;;;1.13;;
13325;SDS011;6732;51.044;3.746;2022-09-14T01:58:20;2.63;;;1.30;;
13325;SDS011;6732;51.044;3.746;2022-09-14T02:01:06;2.22;;;1.27;;
13325;SDS011;6732;51.044;3.746;2022-09-14T02:03:39;1.63;;;1.30;;
13325;SDS011;6732;51.044;3.746;2022-09-14T02:06:18;1.90;;;1.40;;
13325;SDS011;6732;51.044;3.746;2022-09-14T02:08:55;3.70;;;1.40;;
13325;SDS011;6732;51.044;3.746;2022-09-14T02:11:20;2.08;;;1.30;;
13325;SDS011;6732;51.044;3.746;2022-09-14T02:13:46;1.63;;;1.33;;
13325;SDS011;6732;51.044;3.746;2022-09-14T02:16:12;2.78;;;1.13;;
13325;SDS011;6732;51.044;3.746;2022-09-14T02:18:38;1.25;;;1.05;;
13325;SDS011;6732;51.044;3.746;2022-09-14T02:21:06;0.95;;;0.90;;
13325;SDS011;6732;51.044;3.746;2022-09-14T02:23:39;2.25;;;1.65;;
13325;SDS011;6732;51.044;3.746;2022-09-14T02:26:06;1.38;;;1.27;;
13325;SDS011;6732;51.044;3.746;2022-09-14T02:28:32;2.50;;;1.40;;
13325;SDS011;6732;51.044;3.746;2022-09-14T02:44:40;0.95;;;0.90;;
13325;SDS011;6732;51.044;3.746;2022-09-14T02:47:23;1.83;;;1.45;;
13325;SDS011;6732;51.044;3.746;2022-09-14T02:49:56;1.92;;;1.20;;
13325;SDS011;6732;51.044;3.746;2022-09-14T02:55:25;2.00;;;1.10;;
13325;SDS011;6732;51.044;3.746;2022-09-14T02:58:05;1.02;;;1.00;;
13325;SDS011;6732;51.044;3.746;2022-09-14T03:00:33;2.15;;;1.13;;
13325;SDS011;6732;51.044;3.746;2022-09-14T03:03:06;2.25;;;1.38;;
13325;SDS011;6732;51.044;3.746;2022-09-14T03:05:33;1.33;;;1.23;;
13325;SDS011;6732;51.044;3.746;2022-09-14T03:07:59;3.78;;;1.38;;
13325;SDS011;6732;51.044;3.746;2022-09-14T03:10:26;1.15;;;1.10;;
13325;SDS011;6732;51.044;3.746;2022-09-14T03:12:52;1.63;;;1.20;;
13325;SDS011;6732;51.044;3.746;2022-09-14T03:15:18;1.48;;;1.00;;
13325;SDS011;6732;51.044;3.746;2022-09-14T03:17:48;2.17;;;1.20;;
13325;SDS011;6732;51.044;3.746;2022-09-14T03:20:16;1.65;;;1.30;;
13325;SDS011;6732;51.044;3.746;2022-09-14T03:22:44;1.80;;;1.17;;
13325;SDS011;6732;51.044;3.746;2022-09-14T03:25:11;1.25;;;1.15;;
13325;SDS011;6732;51.044;3.746;2022-09-14T03:27:37;1.38;;;1.27;;
13325;SDS011;6732;51.044;3.746;2022-09-14T03:30:04;1.60;;;1.33;;
13325;SDS011;6732;51.044;3.746;2022-09-14T03:32:30;2.35;;;1.17;;
13325;SDS011;6732;51.044;3.746;2022-09-14T03:34:57;1.48;;;1.20;;
13325;SDS011;6732;51.044;3.746;2022-09-14T03:37:23;1.73;;;1.30;;
13325;SDS011;6732;51.044;3.746;2022-09-14T03:39:49;2.80;;;1.40;;
13325;SDS011;6732;51.044;3.746;2022-09-14T03:42:15;2.42;;;1.13;;
13325;SDS011;6732;51.044;3.746;2022-09-14T03:44:41;1.50;;;1.40;;
13325;SDS011;6732;51.044;3.746;2022-09-14T03:47:08;2.63;;;1.17;;
13325;SDS011;6732;51.044;3.746;2022-09-14T03:49:34;1.33;;;1.23;;
13325;SDS011;6732;51.044;3.746;2022-09-14T03:52:00;1.58;;;1.08;;
13325;SDS011;6732;51.044;3.746;2022-09-14T03:54:26;2.17;;;1.15;;
13325;SDS011;6732;51.044;3.746;2022-09-14T03:56:52;1.80;;;1.17;;
13325;SDS011;6732;51.044;3.746;2022-09-14T03:59:19;2.58;;;1.40;;
13325;SDS011;6732;51.044;3.746;2022-09-14T04:01:45;1.30;;;1.20;;
13325;SDS011;6732;51.044;3.746;2022-09-14T04:04:12;2.45;;;1.35;;
13325;SDS011;6732;51.044;3.746;2022-09-14T04:06:38;1.58;;;1.35;;
13325;SDS011;6732;51.044;3.746;2022-09-14T04:09:04;3.08;;;1.63;;
13325;SDS011;6732;51.044;3.746;2022-09-14T04:11:29;1.92;;;1.70;;
13325;SDS011;6732;51.044;3.746;2022-09-14T04:14:01;2.47;;;1.38;;
13325;SDS011;6732;51.044;3.746;2022-09-14T04:16:28;1.98;;;1.60;;
13325;SDS011;6732;51.044;3.746;2022-09-14T04:18:55;1.58;;;1.30;;
13325;SDS011;6732;51.044;3.746;2022-09-14T04:21:22;1.67;;;1.58;;
13325;SDS011;6732;51.044;3.746;2022-09-14T04:23:53;2.20;;;1.70;;
13325;SDS011;6732;51.044;3.746;2022-09-14T04:26:21;2.38;;;1.60;;
13325;SDS011;6732;51.044;3.746;2022-09-14T04:28:49;2.92;;;1.80;;
13325;SDS011;6732;51.044;3.746;2022-09-14T04:31:15;2.85;;;1.60;;
13325;SDS011;6732;51.044;3.746;2022-09-14T04:33:41;2.33;;;1.60;;
13325;SDS011;6732;51.044;3.746;2022-09-14T04:36:09;1.70;;;1.60;;
13325;SDS011;6732;51.044;3.746;2022-09-14T04:38:37;2.05;;;1.75;;
13325;SDS011;6732;51.044;3.746;2022-09-14T04:41:04;2.00;;;1.45;;
13325;SDS011;6732;51.044;3.746;2022-09-14T04:43:36;5.35;;;1.52;;
13325;SDS011;6732;51.044;3.746;2022-09-14T04:46:07;2.42;;;1.60;;
13325;SDS011;6732;51.044;3.746;2022-09-14T04:48:38;2.90;;;1.55;;
13325;SDS011;6732;51.044;3.746;2022-09-14T04:51:09;2.85;;;2.05;;
13325;SDS011;6732;51.044;3.746;2022-09-14T04:53:38;1.90;;;1.70;;
13325;SDS011;6732;51.044;3.746;2022-09-14T04:56:06;1.77;;;1.67;;
13325;SDS011;6732;51.044;3.746;2022-09-14T04:58:33;3.47;;;1.90;;
13325;SDS011;6732;51.044;3.746;2022-09-14T05:01:01;3.88;;;1.80;;
13325;SDS011;6732;51.044;3.746;2022-09-14T05:03:33;2.65;;;1.60;;
13325;SDS011;6732;51.044;3.746;2022-09-14T05:06:00;3.15;;;1.80;;
13325;SDS011;6732;51.044;3.746;2022-09-14T05:08:27;2.85;;;1.80;;
13325;SDS011;6732;51.044;3.746;2022-09-14T05:10:54;2.40;;;2.00;;
13325;SDS011;6732;51.044;3.746;2022-09-14T05:13:21;3.42;;;2.03;;
13325;SDS011;6732;51.044;3.746;2022-09-14T05:15:47;2.85;;;2.10;;
13325;SDS011;6732;51.044;3.746;2022-09-14T05:18:15;2.45;;;2.20;;
13325;SDS011;6732;51.044;3.746;2022-09-14T05:20:49;3.22;;;2.25;;
13325;SDS011;6732;51.044;3.746;2022-09-14T05:23:15;2.50;;;2.30;;
13325;SDS011;6732;51.044;3.746;2022-09-14T05:25:41;2.55;;;2.35;;
13325;SDS011;6732;51.044;3.746;2022-09-14T05:28:07;2.72;;;2.40;;
13325;SDS011;6732;51.044;3.746;2022-09-14T05:30:33;3.88;;;2.20;;
13325;SDS011;6732;51.044;3.746;2022-09-14T05:32:59;5.32;;;2.60;;
13325;SDS011;6732;51.044;3.746;2022-09-14T05:35:25;3.63;;;2.50;;
13325;SDS011;6732;51.044;3.746;2022-09-14T05:37:51;3.42;;;2.63;;
13325;SDS011;6732;51.044;3.746;2022-09-14T05:40:17;2.70;;;2.50;;
13325;SDS011;6732;51.044;3.746;2022-09-14T05:42:43;3.50;;;2.53;;
13325;SDS011;6732;51.044;3.746;2022-09-14T05:45:09;4.68;;;2.40;;
13325;SDS011;6732;51.044;3.746;2022-09-14T05:47:35;3.00;;;2.55;;
13325;SDS011;6732;51.044;3.746;2022-09-14T05:50:01;3.92;;;2.70;;
13325;SDS011;6732;51.044;3.746;2022-09-14T05:52:28;4.38;;;2.88;;
13325;SDS011;6732;51.044;3.746;2022-09-14T05:54:54;4.53;;;2.53;;
13325;SDS011;6732;51.044;3.746;2022-09-14T05:57:20;3.47;;;2.60;;
13325;SDS011;6732;51.044;3.746;2022-09-14T05:59:46;4.10;;;3.15;;
13325;SDS011;6732;51.044;3.746;2022-09-14T06:02:11;4.80;;;2.95;;
13325;SDS011;6732;51.044;3.746;2022-09-14T06:04:37;3.65;;;3.08;;
13325;SDS011;6732;51.044;3.746;2022-09-14T06:07:03;7.10;;;3.67;;
13325;SDS011;6732;51.044;3.746;2022-09-14T06:09:29;6.57;;;3.42;;
13325;SDS011;6732;51.044;3.746;2022-09-14T06:11:55;5.18;;;3.45;;
13325;SDS011;6732;51.044;3.746;2022-09-14T06:14:21;6.60;;;3.38;;
13325;SDS011;6732;51.044;3.746;2022-09-14T06:16:47;5.90;;;3.60;;
13325;SDS011;6732;51.044;3.746;2022-09-14T06:19:13;3.88;;;3.47;;
13325;SDS011;6732;51.044;3.746;2022-09-14T06:21:40;6.28;;;3.35;;
13325;SDS011;6732;51.044;3.746;2022-09-14T06:24:08;6.68;;;3.58;;
13325;SDS011;6732;51.044;3.746;2022-09-14T06:26:37;4.97;;;3.25;;
13325;SDS011;6732;51.044;3.746;2022-09-14T06:29:04;5.30;;;3.40;;
13325;SDS011;6732;51.044;3.746;2022-09-14T06:31:30;4.68;;;3.70;;
13325;SDS011;6732;51.044;3.746;2022-09-14T06:33:56;6.13;;;3.70;;
13325;SDS011;6732;51.044;3.746;2022-09-14T06:36:23;8.27;;;3.72;;
13325;SDS011;6732;51.044;3.746;2022-09-14T06:38:51;4.88;;;3.58;;
13325;SDS011;6732;51.044;3.746;2022-09-14T06:41:19;5.43;;;3.75;;
13325;SDS011;6732;51.044;3.746;2022-09-14T06:43:50;4.93;;;3.60;;
13325;SDS011;6732;51.044;3.746;2022-09-14T06:48:48;4.18;;;3.47;;
13325;SDS011;6732;51.044;3.746;2022-09-14T06:51:38;6.78;;;3.80;;
13325;SDS011;6732;51.044;3.746;2022-09-14T06:54:04;3.72;;;3.28;;
13325;SDS011;6732;51.044;3.746;2022-09-14T06:56:31;5.70;;;3.58;;
13325;SDS011;6732;51.044;3.746;2022-09-14T06:59:03;4.88;;;3.60;;
13325;SDS011;6732;51.044;3.746;2022-09-14T07:01:31;5.57;;;3.67;;
13325;SDS011;6732;51.044;3.746;2022-09-14T07:03:58;5.03;;;3.55;;
13325;SDS011;6732;51.044;3.746;2022-09-14T07:06:27;4.72;;;3.60;;
13325;SDS011;6732;51.044;3.746;2022-09-14T07:08:55;6.43;;;3.83;;
13325;SDS011;6732;51.044;3.746;2022-09-14T07:11:22;5.65;;;3.50;;
13325;SDS011;6732;51.044;3.746;2022-09-14T07:13:59;3.97;;;3.58;;
13325;SDS011;6732;51.044;3.746;2022-09-14T07:16:27;4.15;;;3.58;;
13325;SDS011;6732;51.044;3.746;2022-09-14T07:18:54;4.10;;;3.70;;
13325;SDS011;6732;51.044;3.746;2022-09-14T07:21:21;4.70;;;3.67;;
13325;SDS011;6732;51.044;3.746;2022-09-14T07:23:48;5.72;;;3.97;;
13325;SDS011;6732;51.044;3.746;2022-09-14T07:26:24;6.50;;;3.80;;
13325;SDS011;6732;51.044;3.746;2022-09-14T07:28:59;6.25;;;4.00;;
13325;SDS011;6732;51.044;3.746;2022-09-14T07:31:28;5.70;;;3.80;;
13325;SDS011;6732;51.044;3.746;2022-09-14T07:34:01;6.95;;;3.88;;
13325;SDS011;6732;51.044;3.746;2022-09-14T07:36:28;5.35;;;3.92;;
13325;SDS011;6732;51.044;3.746;2022-09-14T07:38:56;4.95;;;4.25;;
13325;SDS011;6732;51.044;3.746;2022-09-14T07:41:24;4.63;;;4.20;;
13325;SDS011;6732;51.044;3.746;2022-09-14T07:43:56;4.72;;;4.32;;
13325;SDS011;6732;51.044;3.746;2022-09-14T07:46:40;5.32;;;4.30;;
13325;SDS011;6732;51.044;3.746;2022-09-14T07:49:35;4.63;;;4.10;;
13325;SDS011;6732;51.044;3.746;2022-09-14T07:52:15;5.32;;;4.05;;
13325;SDS011;6732;51.044;3.746;2022-09-14T07:54:41;6.13;;;4.45;;
13325;SDS011;6732;51.044;3.746;2022-09-14T07:57:07;4.32;;;3.92;;
13325;SDS011;6732;51.044;3.746;2022-09-14T07:59:33;5.47;;;4.85;;
13325;SDS011;6732;51.044;3.746;2022-09-14T08:01:59;4.93;;;4.20;;
13325;SDS011;6732;51.044;3.746;2022-09-14T08:04:26;4.93;;;4.43;;
13325;SDS011;6732;51.044;3.746;2022-09-14T08:06:51;6.35;;;4.40;;
13325;SDS011;6732;51.044;3.746;2022-09-14T08:09:17;6.85;;;4.32;;
13325;SDS011;6732;51.044;3.746;2022-09-14T08:11:43;5.47;;;4.68;;
13325;SDS011;6732;51.044;3.746;2022-09-14T08:14:10;5.15;;;4.25;;
13325;SDS011;6732;51.044;3.746;2022-09-14T08:16:38;5.18;;;4.68;;
13325;SDS011;6732;51.044;3.746;2022-09-14T08:19:06;5.07;;;4.57;;
13325;SDS011;6732;51.044;3.746;2022-09-14T08:21:36;6.70;;;4.68;;
13325;SDS011;6732;51.044;3.746;2022-09-14T08:24:03;5.35;;;4.30;;
13325;SDS011;6732;51.044;3.746;2022-09-14T08:26:30;6.45;;;4.78;;
13325;SDS011;6732;51.044;3.746;2022-09-14T08:28:56;5.40;;;4.50;;
13325;SDS011;6732;51.044;3.746;2022-09-14T08:31:24;5.32;;;4.82;;
13325;SDS011;6732;51.044;3.746;2022-09-14T08:33:56;5.25;;;4.75;;
13325;SDS011;6732;51.044;3.746;2022-09-14T08:36:28;4.97;;;4.55;;
13325;SDS011;6732;51.044;3.746;2022-09-14T08:38:55;7.93;;;4.97;;
13325;SDS011;6732;51.044;3.746;2022-09-14T08:43:54;5.72;;;4.95;;
13325;SDS011;6732;51.044;3.746;2022-09-14T08:46:41;6.28;;;5.18;;
13325;SDS011;6732;51.044;3.746;2022-09-14T08:49:20;6.70;;;5.05;;
13325;SDS011;6732;51.044;3.746;2022-09-14T08:51:52;5.47;;;4.97;;
13325;SDS011;6732;51.044;3.746;2022-09-14T08:54:18;5.07;;;4.63;;
13325;SDS011;6732;51.044;3.746;2022-09-14T08:56:44;6.18;;;5.43;;
13325;SDS011;6732;51.044;3.746;2022-09-14T08:59:26;6.03;;;5.43;;
13325;SDS011;6732;51.044;3.746;2022-09-14T09:02:54;5.75;;;5.25;;
13325;SDS011;6732;51.044;3.746;2022-09-14T09:05:32;5.55;;;5.05;;
13325;SDS011;6732;51.044;3.746;2022-09-14T09:10:44;7.00;;;5.07;;
13325;SDS011;6732;51.044;3.746;2022-09-14T09:13:14;6.32;;;5.10;;
13325;SDS011;6732;51.044;3.746;2022-09-14T09:15:45;5.05;;;4.57;;
13325;SDS011;6732;51.044;3.746;2022-09-14T09:18:17;5.47;;;4.88;;
13325;SDS011;6732;51.044;3.746;2022-09-14T09:21:03;4.85;;;4.25;;
13325;SDS011;6732;51.044;3.746;2022-09-14T09:23:33;6.20;;;4.85;;
13325;SDS011;6732;51.044;3.746;2022-09-14T09:26:04;5.13;;;4.65;;
13325;SDS011;6732;51.044;3.746;2022-09-14T09:28:47;4.65;;;4.25;;
13325;SDS011;6732;51.044;3.746;2022-09-14T09:31:16;4.90;;;4.45;;
13325;SDS011;6732;51.044;3.746;2022-09-14T09:33:47;5.00;;;4.45;;
13325;SDS011;6732;51.044;3.746;2022-09-14T09:36:14;5.28;;;4.50;;
13325;SDS011;6732;51.044;3.746;2022-09-14T09:38:41;4.43;;;4.03;;
13325;SDS011;6732;51.044;3.746;2022-09-14T09:41:23;4.53;;;4.13;;
13325;SDS011;6732;51.044;3.746;2022-09-14T09:43:59;4.10;;;3.78;;
13325;SDS011;6732;51.044;3.746;2022-09-14T09:46:30;4.38;;;3.95;;
13325;SDS011;6732;51.044;3.746;2022-09-14T09:48:58;4.40;;;4.03;;
13325;SDS011;6732;51.044;3.746;2022-09-14T09:51:31;3.65;;;3.35;;
13325;SDS011;6732;51.044;3.746;2022-09-14T09:56:40;3.83;;;3.53;;
13325;SDS011;6732;51.044;3.746;2022-09-14T10:00:10;5.40;;;4.90;;
13325;SDS011;6732;51.044;3.746;2022-09-14T10:02:45;5.13;;;4.60;;
13325;SDS011;6732;51.044;3.746;2022-09-14T10:05:21;5.20;;;4.80;;
13325;SDS011;6732;51.044;3.746;2022-09-14T10:07:59;5.90;;;5.30;;
13325;SDS011;6732;51.044;3.746;2022-09-14T10:12:59;5.28;;;4.78;;
13325;SDS011;6732;51.044;3.746;2022-09-14T10:15:31;6.22;;;5.53;;
13325;SDS011;6732;51.044;3.746;2022-09-14T10:20:44;5.13;;;4.68;;
13325;SDS011;6732;51.044;3.746;2022-09-14T10:23:31;6.45;;;5.72;;
13325;SDS011;6732;51.044;3.746;2022-09-14T10:28:42;5.75;;;5.25;;
13325;SDS011;6732;51.044;3.746;2022-09-14T10:33:45;5.57;;;5.10;;
13325;SDS011;6732;51.044;3.746;2022-09-14T10:36:13;6.10;;;5.47;;
13325;SDS011;6732;51.044;3.746;2022-09-14T10:39:21;5.10;;;4.60;;
13325;SDS011;6732;51.044;3.746;2022-09-14T10:41:57;6.15;;;5.60;;
13325;SDS011;6732;51.044;3.746;2022-09-14T10:50:33;7.30;;;6.57;;
13325;SDS011;6732;51.044;3.746;2022-09-14T10:53:34;7.30;;;6.60;;
13325;SDS011;6732;51.044;3.746;2022-09-14T10:56:05;6.60;;;6.10;;
13325;SDS011;6732;51.044;3.746;2022-09-14T11:01:40;6.47;;;5.93;;
13325;SDS011;6732;51.044;3.746;2022-09-14T11:13:36;6.72;;;6.05;;
13325;SDS011;6732;51.044;3.746;2022-09-14T11:18:57;7.40;;;6.65;;
13325;SDS011;6732;51.044;3.746;2022-09-14T11:21:41;5.68;;;5.28;;
13325;SDS011;6732;51.044;3.746;2022-09-14T11:24:16;6.47;;;5.57;;
13325;SDS011;6732;51.044;3.746;2022-09-14T11:26:52;6.15;;;5.53;;
13325;SDS011;6732;51.044;3.746;2022-09-14T11:29:38;5.38;;;4.97;;
13325;SDS011;6732;51.044;3.746;2022-09-14T11:35:12;6.25;;;5.65;;
13325;SDS011;6732;51.044;3.746;2022-09-14T11:40:26;7.25;;;6.38;;
13325;SDS011;6732;51.044;3.746;2022-09-14T11:45:42;7.53;;;6.82;;
13325;SDS011;6732;51.044;3.746;2022-09-14T11:48:20;7.70;;;6.97;;
13325;SDS011;6732;51.044;3.746;2022-09-14T11:50:46;8.05;;;6.90;;
13325;SDS011;6732;51.044;3.746;2022-09-14T11:53:16;8.68;;;7.88;;
13325;SDS011;6732;51.044;3.746;2022-09-14T11:55:47;8.73;;;6.88;;
13325;SDS011;6732;51.044;3.746;2022-09-14T11:58:24;7.30;;;6.60;;
13325;SDS011;6732;51.044;3.746;2022-09-14T12:11:42;7.68;;;6.97;;
13325;SDS011;6732;51.044;3.746;2022-09-14T12:17:12;8.05;;;7.25;;
13325;SDS011;6732;51.044;3.746;2022-09-14T12:20:19;10.65;;;9.65;;
13325;SDS011;6732;51.044;3.746;2022-09-14T12:22:51;9.82;;;8.82;;
13325;SDS011;6732;51.044;3.746;2022-09-14T12:25:52;10.18;;;9.18;;
13325;SDS011;6732;51.044;3.746;2022-09-14T12:28:28;9.25;;;8.35;;
13325;SDS011;6732;51.044;3.746;2022-09-14T12:49:36;10.30;;;9.40;;
13325;SDS011;6732;51.044;3.746;2022-09-14T12:51:53;12.82;;;11.70;;
13325;SDS011;6732;51.044;3.746;2022-09-14T12:54:24;11.05;;;9.95;;
13325;SDS011;6732;51.044;3.746;2022-09-14T12:57:22;10.32;;;9.23;;
13325;SDS011;6732;51.044;3.746;2022-09-14T13:00:12;12.35;;;11.25;;
13325;SDS011;6732;51.044;3.746;2022-09-14T13:05:28;12.60;;;11.25;;
13325;SDS011;6732;51.044;3.746;2022-09-14T13:07:58;10.93;;;9.93;;
13325;SDS011;6732;51.044;3.746;2022-09-14T13:10:32;9.85;;;8.90;;
13325;SDS011;6732;51.044;3.746;2022-09-14T13:13:01;11.10;;;9.38;;
13325;SDS011;6732;51.044;3.746;2022-09-14T13:15:36;10.10;;;9.20;;
13325;SDS011;6732;51.044;3.746;2022-09-14T13:20:48;13.25;;;12.10;;
13325;SDS011;6732;51.044;3.746;2022-09-14T13:23:22;11.20;;;10.00;;
13325;SDS011;6732;51.044;3.746;2022-09-14T13:25:51;12.88;;;11.68;;
13325;SDS011;6732;51.044;3.746;2022-09-14T13:28:18;12.05;;;10.98;;
13325;SDS011;6732;51.044;3.746;2022-09-14T13:30:54;10.75;;;9.07;;
13325;SDS011;6732;51.044;3.746;2022-09-14T13:33:22;9.65;;;8.65;;
13325;SDS011;6732;51.044;3.746;2022-09-14T13:35:52;11.02;;;9.30;;
13325;SDS011;6732;51.044;3.746;2022-09-14T13:38:29;11.05;;;9.63;;
13325;SDS011;6732;51.044;3.746;2022-09-14T13:41:08;10.65;;;9.65;;
13325;SDS011;6732;51.044;3.746;2022-09-14T13:43:36;10.45;;;8.32;;
13325;SDS011;6732;51.044;3.746;2022-09-14T13:46:04;9.30;;;8.30;;
13325;SDS011;6732;51.044;3.746;2022-09-14T13:48:36;9.35;;;8.45;;
13325;SDS011;6732;51.044;3.746;2022-09-14T13:51:07;9.38;;;8.48;;
13325;SDS011;6732;51.044;3.746;2022-09-14T13:53:41;7.65;;;6.95;;
13325;SDS011;6732;51.044;3.746;2022-09-14T14:04:30;7.82;;;7.03;;
13325;SDS011;6732;51.044;3.746;2022-09-14T14:07:33;7.93;;;6.70;;
13325;SDS011;6732;51.044;3.746;2022-09-14T14:09:57;7.80;;;6.72;;
13325;SDS011;6732;51.044;3.746;2022-09-14T14:12:31;7.47;;;6.65;;
13325;SDS011;6732;51.044;3.746;2022-09-14T14:15:05;8.65;;;6.78;;
13325;SDS011;6732;51.044;3.746;2022-09-14T14:17:38;6.65;;;6.05;;
13325;SDS011;6732;51.044;3.746;2022-09-14T14:22:57;7.47;;;6.60;;
13325;SDS011;6732;51.044;3.746;2022-09-14T14:28:03;7.95;;;7.15;;
13325;SDS011;6732;51.044;3.746;2022-09-14T14:30:35;8.18;;;7.38;;
13325;SDS011;6732;51.044;3.746;2022-09-14T14:33:04;8.75;;;7.85;;
13325;SDS011;6732;51.044;3.746;2022-09-14T14:35:35;9.32;;;8.43;;
13325;SDS011;6732;51.044;3.746;2022-09-14T14:38:01;9.18;;;8.27;;
13325;SDS011;6732;51.044;3.746;2022-09-14T14:40:27;9.25;;;8.25;;
13325;SDS011;6732;51.044;3.746;2022-09-14T14:42:53;9.02;;;8.20;;
13325;SDS011;6732;51.044;3.746;2022-09-14T14:45:22;9.73;;;8.70;;
13325;SDS011;6732;51.044;3.746;2022-09-14T14:47:50;9.13;;;8.00;;
13325;SDS011;6732;51.044;3.746;2022-09-14T14:50:18;9.73;;;7.63;;
13325;SDS011;6732;51.044;3.746;2022-09-14T14:52:47;7.72;;;6.93;;
13325;SDS011;6732;51.044;3.746;2022-09-14T14:55:13;7.03;;;6.32;;
13325;SDS011;6732;51.044;3.746;2022-09-14T14:57:39;5.50;;;5.00;;
13325;SDS011;6732;51.044;3.746;2022-09-14T15:00:06;4.90;;;4.40;;
13325;SDS011;6732;51.044;3.746;2022-09-14T15:02:38;4.95;;;4.45;;
13325;SDS011;6732;51.044;3.746;2022-09-14T15:05:04;5.63;;;4.38;;
13325;SDS011;6732;51.044;3.746;2022-09-14T15:07:31;5.00;;;4.50;;
13325;SDS011;6732;51.044;3.746;2022-09-14T15:09:57;5.00;;;4.50;;
13325;SDS011;6732;51.044;3.746;2022-09-14T15:12:23;5.82;;;5.22;;
13325;SDS011;6732;51.044;3.746;2022-09-14T15:14:49;8.25;;;5.70;;
13325;SDS011;6732;51.044;3.746;2022-09-14T15:17:15;5.97;;;4.88;;
13325;SDS011;6732;51.044;3.746;2022-09-14T15:19:41;5.65;;;4.95;;
13325;SDS011;6732;51.044;3.746;2022-09-14T15:22:07;5.85;;;5.25;;
13325;SDS011;6732;51.044;3.746;2022-09-14T15:24:34;7.20;;;5.20;;
13325;SDS011;6732;51.044;3.746;2022-09-14T15:27:01;7.07;;;5.40;;
13325;SDS011;6732;51.044;3.746;2022-09-14T15:29:27;5.70;;;4.70;;
13325;SDS011;6732;51.044;3.746;2022-09-14T15:31:53;7.95;;;4.95;;
13325;SDS011;6732;51.044;3.746;2022-09-14T15:34:19;7.57;;;5.43;;
13325;SDS011;6732;51.044;3.746;2022-09-14T15:36:46;7.80;;;5.78;;
13325;SDS011;6732;51.044;3.746;2022-09-14T15:39:21;6.60;;;5.68;;
13325;SDS011;6732;51.044;3.746;2022-09-14T15:41:48;6.80;;;5.80;;
13325;SDS011;6732;51.044;3.746;2022-09-14T15:44:14;6.57;;;4.55;;
13325;SDS011;6732;51.044;3.746;2022-09-14T15:46:41;5.40;;;4.95;;
13325;SDS011;6732;51.044;3.746;2022-09-14T15:49:27;7.13;;;5.20;;
13325;SDS011;6732;51.044;3.746;2022-09-14T15:51:53;6.18;;;5.07;;
13325;SDS011;6732;51.044;3.746;2022-09-14T15:54:21;6.45;;;5.40;;
13325;SDS011;6732;51.044;3.746;2022-09-14T15:56:49;7.78;;;6.05;;
13325;SDS011;6732;51.044;3.746;2022-09-14T15:59:17;7.72;;;6.63;;
13325;SDS011;6732;51.044;3.746;2022-09-14T16:01:43;7.95;;;5.97;;
13325;SDS011;6732;51.044;3.746;2022-09-14T16:04:10;6.50;;;5.85;;
13325;SDS011;6732;51.044;3.746;2022-09-14T16:06:36;8.82;;;5.95;;
13325;SDS011;6732;51.044;3.746;2022-09-14T16:09:03;7.32;;;6.00;;
13325;SDS011;6732;51.044;3.746;2022-09-14T16:11:32;7.78;;;6.68;;
13325;SDS011;6732;51.044;3.746;2022-09-14T16:13:59;11.15;;;6.22;;
13325;SDS011;6732;51.044;3.746;2022-09-14T16:16:25;7.43;;;6.47;;
13325;SDS011;6732;51.044;3.746;2022-09-14T16:18:51;7.97;;;6.05;;
13325;SDS011;6732;51.044;3.746;2022-09-14T16:21:18;9.55;;;6.13;;
13325;SDS011;6732;51.044;3.746;2022-09-14T16:23:49;8.23;;;5.38;;
13325;SDS011;6732;51.044;3.746;2022-09-14T16:26:18;6.60;;;5.90;;
13325;SDS011;6732;51.044;3.746;2022-09-14T16:28:46;8.50;;;6.20;;
13325;SDS011;6732;51.044;3.746;2022-09-14T16:31:17;6.80;;;6.10;;
13325;SDS011;6732;51.044;3.746;2022-09-14T16:33:46;8.73;;;5.80;;
13325;SDS011;6732;51.044;3.746;2022-09-14T16:36:14;7.20;;;5.57;;
13325;SDS011;6732;51.044;3.746;2022-09-14T16:38:42;8.90;;;6.25;;
13325;SDS011;6732;51.044;3.746;2022-09-14T16:41:08;7.57;;;5.70;;
13325;SDS011;6732;51.044;3.746;2022-09-14T16:43:35;9.35;;;6.30;;
13325;SDS011;6732;51.044;3.746;2022-09-14T16:46:05;7.40;;;6.30;;
13325;SDS011;6732;51.044;3.746;2022-09-14T16:48:42;8.02;;;6.55;;
13325;SDS011;6732;51.044;3.746;2022-09-14T16:51:09;7.20;;;6.05;;
13325;SDS011;6732;51.044;3.746;2022-09-14T16:53:37;9.45;;;6.32;;
13325;SDS011;6732;51.044;3.746;2022-09-14T16:58:32;7.90;;;7.15;;
13325;SDS011;6732;51.044;3.746;2022-09-14T17:01:11;10.07;;;7.07;;
13325;SDS011;6732;51.044;3.746;2022-09-14T17:03:39;7.97;;;7.18;;
13325;SDS011;6732;51.044;3.746;2022-09-14T17:06:11;8.40;;;7.03;;
13325;SDS011;6732;51.044;3.746;2022-09-14T17:08:39;11.68;;;8.05;;
13325;SDS011;6732;51.044;3.746;2022-09-14T17:11:06;9.07;;;8.15;;
13325;SDS011;6732;51.044;3.746;2022-09-14T17:13:32;9.45;;;8.00;;
13325;SDS011;6732;51.044;3.746;2022-09-14T17:16:02;9.10;;;7.68;;
13325;SDS011;6732;51.044;3.746;2022-09-14T17:18:31;8.85;;;7.95;;
13325;SDS011;6732;51.044;3.746;2022-09-14T17:20:59;9.43;;;7.88;;
13325;SDS011;6732;51.044;3.746;2022-09-14T17:23:27;10.65;;;7.78;;
13325;SDS011;6732;51.044;3.746;2022-09-14T17:25:53;8.70;;;7.80;;
13325;SDS011;6732;51.044;3.746;2022-09-14T17:28:20;13.30;;;8.57;;
13325;SDS011;6732;51.044;3.746;2022-09-14T17:30:52;10.80;;;8.98;;
13325;SDS011;6732;51.044;3.746;2022-09-14T17:33:20;11.73;;;8.88;;
13325;SDS011;6732;51.044;3.746;2022-09-14T17:35:46;12.07;;;8.90;;
13325;SDS011;6732;51.044;3.746;2022-09-14T17:38:17;10.63;;;8.57;;
13325;SDS011;6732;51.044;3.746;2022-09-14T17:40:43;11.65;;;8.32;;